createdAt,value
2019-02-07T00:02:38.697Z,21.35
2019-02-07T00:07:40.007Z,21.75
2019-02-07T00:12:41.500Z,22.45
2019-02-07T00:17:42.853Z,20.52
2019-02-07T00:22:44.162Z,20.12
2019-02-07T00:27:45.471Z,21.23
2019-02-07T00:32:46.794Z,21.23
2019-02-07T00:37:48.342Z,20.20
2019-02-07T00:42:49.939Z,20.70
2019-02-07T00:47:51.337Z,20.27
2019-02-07T00:52:52.652Z,21.37
2019-02-07T00:57:54.759Z,23.12
2019-02-07T01:02:56.717Z,23.27
2019-02-07T01:07:58.184Z,21.57
2019-02-07T01:12:59.836Z,21.52
2019-02-07T01:18:01.135Z,20.43
2019-02-07T01:23:02.490Z,21.57
2019-02-07T01:28:03.805Z,23.42
2019-02-07T01:33:05.090Z,20.50
2019-02-07T01:38:07.954Z,23.20
2019-02-07T01:43:09.377Z,22.60
2019-02-07T01:48:10.678Z,24.12
2019-02-07T01:53:11.959Z,21.73
2019-02-07T01:58:13.234Z,23.47
2019-02-07T02:03:14.983Z,22.10
2019-02-07T02:08:16.686Z,22.30
2019-02-07T02:13:18.026Z,23.42
2019-02-07T02:18:19.791Z,22.15
2019-02-07T02:23:21.191Z,23.42
2019-02-07T02:28:22.607Z,24.05
2019-02-07T02:33:24.024Z,23.73
2019-02-07T02:38:25.255Z,22.50
2019-02-07T02:43:26.435Z,22.67
2019-02-07T02:48:27.684Z,23.52
2019-02-07T02:53:28.890Z,23.35
2019-02-07T02:58:30.322Z,23.55
2019-02-07T03:03:33.486Z,24.70
2019-02-07T03:08:42.774Z,25.27
2019-02-07T03:13:51.777Z,24.55
2019-02-07T03:19:10.165Z,23.50
2019-02-07T03:24:13.319Z,25.88
2019-02-07T03:29:22.495Z,25.27
2019-02-07T03:34:28.869Z,27.87
2019-02-07T03:39:32.047Z,22.73
2019-02-07T03:44:52.026Z,24.18
2019-02-07T03:50:01.516Z,24.67
2019-02-07T03:55:12.114Z,23.80
2019-02-07T04:00:18.328Z,22.15
2019-02-07T04:05:21.629Z,23.45
2019-02-07T04:10:24.897Z,24.57
2019-02-07T04:15:28.501Z,22.73
2019-02-07T04:20:48.070Z,21.12
2019-02-07T04:26:03.870Z,22.25
2019-02-07T04:31:12.829Z,21.37
2019-02-07T04:36:16.112Z,22.45
2019-02-07T04:41:36.025Z,22.50
2019-02-07T04:46:48.469Z,21.23
2019-02-07T04:52:08.974Z,21.23
2019-02-07T04:57:14.986Z,21.65
2019-02-07T05:02:33.470Z,21.65
2019-02-07T05:07:54.040Z,22.37
2019-02-07T05:13:15.564Z,20.72
2019-02-07T05:18:36.651Z,22.35
2019-02-07T05:23:46.036Z,22.27
2019-02-07T05:29:07.519Z,20.88
2019-02-07T05:34:13.817Z,22.45
2019-02-07T05:39:17.310Z,21.25
2019-02-07T05:44:29.485Z,22.05
2019-02-07T05:49:41.342Z,22.30
2019-02-07T05:55:00.996Z,22.55
2019-02-07T06:00:23.489Z,21.95
2019-02-07T06:05:43.441Z,22.95
2019-02-07T06:11:03.519Z,22.55
2019-02-07T06:16:07.147Z,22.20
2019-02-07T06:21:22.780Z,22.17
2019-02-07T06:26:35.508Z,22.02
2019-02-07T06:31:55.561Z,23.30
2019-02-07T06:36:58.788Z,22.07
2019-02-07T06:42:08.432Z,21.97
2019-02-07T06:47:13.451Z,20.82
2019-02-07T06:52:33.721Z,20.05
2019-02-07T06:57:52.447Z,18.15
2019-02-07T07:02:55.715Z,17.40
2019-02-07T07:08:04.797Z,16.77
2019-02-07T07:13:14.238Z,15.88
2019-02-07T07:18:34.134Z,15.80
2019-02-07T07:23:37.493Z,16.45
2019-02-07T07:28:43.764Z,16.75
2019-02-07T07:33:59.220Z,15.38
2019-02-07T07:39:14.622Z,15.50
2019-02-07T07:44:23.846Z,15.23
2019-02-07T07:49:38.888Z,15.32
2019-02-07T07:54:59.655Z,15.30
2019-02-07T08:00:05.372Z,15.40
2019-02-07T08:05:14.716Z,16.23
2019-02-07T08:10:34.896Z,15.78
2019-02-07T08:15:55.121Z,16.30
2019-02-07T08:20:58.414Z,15.63
2019-02-07T08:26:04.588Z,15.03
2019-02-07T08:31:07.812Z,15.50
2019-02-07T08:36:18.177Z,16.25
2019-02-07T08:41:21.592Z,15.68
2019-02-07T08:46:41.255Z,16.65
2019-02-07T08:51:53.617Z,16.05
2019-02-07T08:56:56.894Z,15.83
2019-02-07T09:02:15.081Z,16.57
2019-02-07T09:07:18.515Z,17.62
2019-02-07T09:12:38.614Z,16.80
2019-02-07T09:17:44.755Z,16.00
2019-02-07T09:22:55.979Z,15.25
2019-02-07T09:27:59.198Z,16.95
2019-02-07T09:33:18.877Z,16.93
2019-02-07T09:38:40.553Z,18.55
2019-02-07T09:43:46.733Z,18.75
2019-02-07T09:48:58.640Z,17.62
2019-02-07T09:54:04.784Z,19.77
2019-02-07T09:59:08.043Z,16.40
2019-02-07T10:04:15.351Z,16.70
2019-02-07T10:09:18.522Z,18.30
2019-02-07T10:14:21.614Z,17.02
2019-02-07T10:19:42.704Z,18.80
2019-02-07T10:24:58.252Z,18.37
2019-02-07T10:30:02.432Z,18.67
2019-02-07T10:35:09.697Z,18.65
2019-02-07T10:40:16.671Z,18.40
2019-02-07T10:45:22.794Z,19.12
2019-02-07T10:50:38.274Z,18.17
2019-02-07T10:56:00.349Z,19.45
2019-02-07T11:01:06.457Z,20.95
2019-02-07T11:06:18.654Z,22.13
2019-02-07T11:11:30.951Z,23.90
2019-02-07T11:16:42.833Z,26.02
2019-02-07T11:22:02.795Z,28.05
2019-02-07T11:27:18.379Z,26.87
2019-02-07T11:32:38.451Z,25.15
2019-02-07T11:37:59.904Z,31.20
2019-02-07T11:43:09.657Z,29.35
2019-02-07T11:48:13.052Z,27.13
2019-02-07T11:53:32.697Z,26.25
2019-02-07T11:58:38.863Z,28.23
2019-02-07T12:03:45.403Z,26.50
2019-02-07T12:08:51.533Z,28.83
2019-02-07T12:14:09.900Z,27.60
2019-02-07T12:19:25.206Z,26.80
2019-02-07T12:24:34.722Z,28.57
2019-02-07T12:29:44.684Z,25.37
2019-02-07T12:34:50.434Z,25.55
2019-02-07T12:39:53.590Z,25.15
2019-02-07T12:45:12.244Z,25.50
2019-02-07T12:50:15.479Z,25.02
2019-02-07T12:55:21.486Z,25.95
2019-02-07T13:00:41.755Z,27.35
2019-02-07T13:06:01.736Z,25.75
2019-02-07T13:11:15.048Z,25.52
2019-02-07T13:16:36.368Z,24.20
2019-02-07T13:21:56.511Z,24.02
2019-02-07T13:27:02.428Z,21.77
2019-02-07T13:32:10.390Z,20.27
2019-02-07T13:37:17.775Z,21.95
2019-02-07T13:42:32.958Z,20.40
2019-02-07T13:47:42.051Z,21.73
2019-02-07T13:52:51.457Z,21.17
2019-02-07T13:58:11.906Z,20.40
2019-02-07T14:03:33.420Z,20.35
2019-02-07T14:08:40.482Z,20.85
2019-02-07T14:13:59.866Z,20.02
2019-02-07T14:19:03.339Z,18.82
2019-02-07T14:24:09.513Z,19.20
2019-02-07T14:29:29.657Z,19.30
2019-02-07T14:34:41.928Z,18.85
2019-02-07T14:39:47.981Z,20.23
2019-02-07T14:44:53.844Z,20.02
2019-02-07T14:49:55.329Z,19.40
2019-02-07T14:54:57.560Z,18.00
2019-02-07T14:59:58.858Z,20.90
2019-02-07T15:05:00.532Z,20.92
2019-02-07T15:10:01.950Z,21.87
2019-02-07T15:15:09.078Z,19.62
2019-02-07T15:20:11.416Z,20.43
2019-02-07T15:25:12.985Z,20.52
2019-02-07T15:30:16.482Z,20.32
2019-02-07T15:35:24.244Z,20.15
2019-02-07T15:40:25.862Z,21.20
2019-02-07T15:45:27.440Z,21.62
2019-02-07T15:50:37.657Z,24.10
2019-02-07T15:55:34.187Z,22.73
2019-02-07T16:00:43.358Z,23.30
2019-02-07T16:05:45.261Z,26.12
2019-02-07T16:10:46.619Z,24.80
2019-02-07T16:15:48.305Z,23.70
2019-02-07T16:20:49.634Z,23.77
2019-02-07T16:25:51.301Z,25.02
2019-02-07T16:30:54.517Z,24.87
2019-02-07T16:35:55.784Z,23.45
2019-02-07T16:40:57.213Z,24.72
2019-02-07T16:45:58.885Z,24.55
2019-02-07T16:51:00.643Z,24.07
2019-02-07T16:56:02.192Z,22.82
2019-02-07T17:01:04.387Z,22.90
2019-02-07T17:06:05.775Z,24.75
2019-02-07T17:11:07.056Z,24.27
2019-02-07T17:16:08.452Z,23.85
2019-02-07T17:21:12.468Z,24.35
2019-02-07T17:26:13.259Z,25.23
2019-02-07T17:31:14.521Z,27.22
2019-02-07T17:36:17.007Z,27.73
2019-02-07T17:41:18.428Z,26.12
2019-02-07T17:46:19.708Z,25.15
2019-02-07T17:51:23.300Z,26.37
2019-02-07T17:56:24.494Z,26.97
2019-02-07T18:01:26.026Z,25.88
2019-02-07T18:06:27.721Z,27.67
2019-02-07T18:11:29.139Z,26.87
2019-02-07T18:16:31.019Z,27.73
2019-02-07T18:21:34.199Z,26.73
2019-02-07T18:26:35.688Z,26.40
2019-02-07T18:31:37.370Z,27.27
2019-02-07T18:36:39.054Z,26.60
2019-02-07T18:41:40.313Z,28.05
2019-02-07T18:46:41.901Z,28.80
2019-02-07T18:51:45.721Z,27.75
2019-02-07T18:56:46.833Z,28.15
2019-02-07T19:01:48.623Z,28.60
2019-02-07T19:06:50.851Z,29.10
2019-02-07T19:11:52.255Z,29.15
2019-02-07T19:16:53.684Z,24.52
2019-02-07T19:21:57.148Z,26.27
2019-02-07T19:26:58.196Z,27.02
2019-02-07T19:31:59.739Z,29.40
2019-02-07T19:37:01.286Z,28.80
2019-02-07T19:42:04.383Z,29.25
2019-02-07T19:47:05.943Z,30.77
2019-02-07T19:52:08.591Z,27.67
2019-02-07T19:57:10.158Z,26.10
2019-02-07T20:02:11.574Z,27.67
2019-02-07T20:07:13.424Z,25.48
2019-02-07T20:12:16.175Z,24.45
2019-02-07T20:17:17.556Z,25.80
2019-02-07T20:22:20.467Z,25.40
2019-02-07T20:27:31.692Z,26.85
2019-02-07T20:32:37.466Z,23.32
2019-02-07T20:37:38.783Z,21.70
2019-02-07T20:42:45.410Z,20.90
2019-02-07T20:47:48.598Z,23.62
2019-02-07T20:52:50.847Z,24.45
2019-02-07T20:57:53.249Z,23.15
2019-02-07T21:02:56.147Z,25.55
2019-02-07T21:07:57.714Z,26.25
2019-02-07T21:12:59.212Z,24.60
2019-02-07T21:18:00.876Z,26.20
2019-02-07T21:23:03.368Z,25.23
2019-02-07T21:28:06.185Z,25.43
2019-02-07T21:33:07.566Z,24.45
2019-02-07T21:38:08.994Z,24.72
2019-02-07T21:43:10.422Z,25.68
2019-02-07T21:48:12.224Z,23.47
2019-02-07T21:53:14.414Z,21.93
2019-02-07T21:58:15.917Z,21.87
2019-02-07T22:03:18.396Z,18.35
2019-02-07T22:08:19.807Z,16.80
2019-02-07T22:13:21.244Z,17.40
2019-02-07T22:18:22.929Z,17.17
2019-02-07T22:23:24.210Z,18.77
2019-02-07T22:28:25.747Z,20.00
2019-02-07T22:33:27.137Z,18.25
2019-02-07T22:38:28.464Z,18.77
2019-02-07T22:43:29.757Z,20.12
2019-02-07T22:48:31.151Z,20.30
2019-02-07T22:53:32.468Z,19.85
2019-02-07T22:58:33.961Z,18.85
2019-02-07T23:03:37.900Z,19.48
2019-02-07T23:08:39.525Z,19.57
2019-02-07T23:13:40.835Z,18.80
2019-02-07T23:18:42.582Z,18.48
2019-02-07T23:23:44.558Z,16.20
2019-02-07T23:28:46.136Z,18.80
2019-02-07T23:33:47.619Z,20.20
2019-02-07T23:38:48.905Z,19.52
2019-02-07T23:43:55.285Z,18.23
2019-02-07T23:48:56.968Z,19.85
2019-02-07T23:53:58.267Z,17.75
2019-02-07T23:58:59.595Z,19.20
